• Join FlightAware (Why Join?)
  • Login
  • US Flag 
05:28PM EDT


 

Airport Tracker/Info


-or-


 

Live Flight TrackerFlight Track Log ✈ SWA2336 ✈ 12-Apr-2013 ✈ KAUS - KDAL

Flight Track Log - Related Links

Times and Time Zones

All times are in EDT time to prevent confusion due to time zone crossing. See the SWA2336 flight status page for this flight to view local times or setup timezone preferences in your user account.

Time Position Orientation Groundspeed Altitude Reporting Facility
EDT Latitude Longitude Course Direction KTS MPH feet Rate Location/Type
01:09PM 30.1203 -97.6022 47° Northeast 243 280 4,300  Level Houston Center
01:10PM 30.1853 -97.5519 34° Northeast 276 318 7,400 3,120 Climbing Houston Center
01:11PM 30.2561 -97.5067 29° Northeast 285 328 10,800 2,880 Climbing Houston Center
01:12PM 30.3575 -97.4392 30° Northeast 362 417 13,400 2,460 Climbing Houston Center
01:13PM 30.4626 -97.4094 45° Northeast  Level FlightAware Approximate
01:13PM 30.4506 -97.3767 30° Northeast 379 436 16,000  Level Houston Center
01:14PM 30.5263 -97.3339 47° Northeast  Level FlightAware Approximate
01:14PM 30.5511 -97.3108 29° Northeast 405 466 18,800  Level Houston Center
01:15PM 30.6411 -97.2153 42° Northeast 435 501 20,800 1,440 Climbing Houston Center
01:16PM 30.7308 -97.1081 46° Northeast 459 528 21,900 480 Climbing Houston Center
01:17PM 30.8386 -96.9806 45° Northeast 473 544 21,900  Level Houston Center
01:18PM 30.9278 -96.8739 46° Northeast 465 535 21,900  Level Houston Center
01:19PM 31.0175 -96.7650 46° Northeast 465 535 21,900  Level Houston Center
01:20PM 31.1083 -96.6556 46° Northeast 463 533 21,900  Level Houston Center
01:21PM 31.1983 -96.5461 46° Northeast 466 536 21,900  Level Houston Center
01:22PM 31.2886 -96.4364 46° Northeast 465 535 21,900  Level Houston Center
01:23PM 31.4006 -96.3186 42° Northeast 462 532 21,900  Level Houston Center
01:24PM 31.4444 -96.3031 17° North 440 506 21,900  Level Fort Worth Center
01:25PM 31.5633 -96.2917 North 416 479 21,900  Level Fort Worth Center
01:26PM 31.6842 -96.2806 North 428 493 21,900  Level Fort Worth Center
01:27PM 31.8031 -96.2644 North 428 493 21,900 -780 Level Fort Worth Center
01:28PM 31.9200 -96.2508 North 421 484 20,400 -1,020 Descending Fort Worth Center
01:29PM 32.0222 -96.2692 351° North 387 445 19,900 -1,200 Descending Fort Worth Center
01:30PM 32.1103 -96.2875 350° North 333 383 18,000 -1,800 Descending Fort Worth Center
01:31PM 32.1939 -96.3136 345° North 312 359 16,300 -1,800 Descending Fort Worth Center
01:32PM 32.2669 -96.3175 357° North 293 337 14,400 -1,860 Descending Fort Worth Center
01:33PM 32.3628 -96.2819 17° North 300 345 12,600 -1,680 Descending Fort Worth Center
01:34PM 32.4336 -96.2761 North 294 338 11,100 -1,800 Descending Fort Worth Center
01:35PM 32.5092 -96.3244 332° Northwest 275 316 9,000 -1,260 Descending Fort Worth Center
01:36PM 32.5578 -96.3806 316° Northwest 275 316 8,600 -1,080 Descending Fort Worth Center
01:37PM 32.6189 -96.4539 315° West 280 322 6,900 -1,620 Descending Fort Worth Center
01:38PM 32.6694 -96.5128 316° Northwest 280 322 5,400 -960 Descending Fort Worth Center
01:39PM 32.7283 -96.5811 316° Northwest 275 316 5,000 -240 Descending Fort Worth Center
01:40PM 32.7725 -96.6328 315° West 263 303 5,000  Level Fort Worth Center
01:40PM 32.8167 -96.6667 327° Northwest 229 264 5,000 -540 Level Dallas / Fort Worth TRACON
01:41PM 32.8667 -96.7000 331° Northwest 226 260 4,200 -540 Descending Dallas / Fort Worth TRACON
01:42PM 32.9167 -96.7333 331° Northwest 212 244 4,000 -360 Descending Dallas / Fort Worth TRACON
01:43PM 32.9667 -96.7667 331° Northwest 202 232 3,600 -540 Descending Dallas / Fort Worth TRACON
01:44PM 32.9833 -96.8000 301° West 205 236 3,100 -360 Descending Dallas / Fort Worth TRACON
01:45PM 32.9667 -96.8667 253° West 199 229 3,000 -420 Descending Dallas / Fort Worth TRACON
01:46PM 32.9333 -96.9000 220° Southwest 192 221 2,300 -720 Descending Dallas / Fort Worth TRACON
01:47PM 32.8833 -96.9000 180° South 170 196 1,600 -780 Descending Dallas / Fort Worth TRACON
01:48PM 32.8667 -96.8833 140° Southeast 138 159 900 -720 Descending Dallas / Fort Worth TRACON
01:50PM 32.8471 -96.8518 153° Southeast  Level Estimated
01:57PM 32.8471 -96.8518 153° Southeast  Level Estimated